createdAt,value
2023-04-07T00:00:24.461Z,65.63
2023-04-07T00:02:52.179Z,64.95
2023-04-07T00:05:19.998Z,65.24
2023-04-07T00:07:55.831Z,64.87
2023-04-07T00:10:25.528Z,65.12
2023-04-07T00:12:53.584Z,65.21
2023-04-07T00:15:22.775Z,64.87
2023-04-07T00:17:50.640Z,64.89
2023-04-07T00:20:18.834Z,65.31
2023-04-07T00:22:46.548Z,65.04
2023-04-07T00:25:14.268Z,65.20
2023-04-07T00:27:42.300Z,65.30
2023-04-07T00:30:10.602Z,65.17
2023-04-07T00:32:39.689Z,65.00
2023-04-07T00:35:08.508Z,65.23
2023-04-07T00:37:36.361Z,65.07
2023-04-07T00:40:04.499Z,65.43
2023-04-07T00:42:32.637Z,65.47
2023-04-07T00:45:00.308Z,65.06
2023-04-07T00:47:28.143Z,65.27
2023-04-07T00:49:57.814Z,65.27
2023-04-07T00:52:28.895Z,65.21
2023-04-07T00:54:57.254Z,65.02
2023-04-07T00:57:25.424Z,64.81
2023-04-07T00:59:53.811Z,65.31
2023-04-07T01:02:29.784Z,65.32
2023-04-07T01:05:09.232Z,64.92
2023-04-07T01:07:45.344Z,64.95
2023-04-07T01:10:19.240Z,65.29
2023-04-07T01:12:55.997Z,65.12
2023-04-07T01:15:27.524Z,65.07
2023-04-07T01:18:02.457Z,64.81
2023-04-07T01:20:33.916Z,65.22
2023-04-07T01:23:07.986Z,65.25
2023-04-07T01:26:01.441Z,65.38
2023-04-07T01:28:42.886Z,65.24
2023-04-07T01:31:14.011Z,64.93
2023-04-07T01:33:46.441Z,64.77
2023-04-07T01:36:15.546Z,65.47
2023-04-07T01:38:45.517Z,64.90
2023-04-07T01:41:16.324Z,65.04
2023-04-07T01:43:46.254Z,64.84
2023-04-07T01:46:15.604Z,64.74
2023-04-07T01:48:44.206Z,64.84
2023-04-07T01:51:17.352Z,65.13
2023-04-07T01:53:45.641Z,65.06
2023-04-07T01:56:13.568Z,65.01
2023-04-07T01:58:41.323Z,64.78
2023-04-07T02:01:09.467Z,64.79
2023-04-07T02:03:44.466Z,64.32
2023-04-07T02:06:16.925Z,64.31
2023-04-07T02:08:58.158Z,64.24
2023-04-07T02:11:27.659Z,64.24
2023-04-07T02:13:57.633Z,64.27
2023-04-07T02:16:26.783Z,64.52
2023-04-07T02:18:56.350Z,64.49
2023-04-07T02:21:25.163Z,64.33
2023-04-07T02:23:52.900Z,64.22
2023-04-07T02:26:21.430Z,64.50
2023-04-07T02:28:49.160Z,64.76
2023-04-07T02:31:17.042Z,64.65
2023-04-07T02:33:45.046Z,64.28
2023-04-07T02:36:14.126Z,64.31
2023-04-07T02:38:41.779Z,64.49
2023-04-07T02:41:09.634Z,64.53
2023-04-07T02:43:37.323Z,64.27
2023-04-07T02:46:05.019Z,64.35
2023-04-07T02:48:33.235Z,64.55
2023-04-07T02:51:00.937Z,64.46
2023-04-07T02:53:30.005Z,64.46
2023-04-07T02:55:58.222Z,64.55
2023-04-07T02:58:25.959Z,64.17
2023-04-07T03:00:53.693Z,64.24
2023-04-07T03:03:21.827Z,64.55
2023-04-07T03:05:49.645Z,64.60
2023-04-07T03:08:17.780Z,64.66
2023-04-07T03:10:46.825Z,64.46
2023-04-07T03:13:16.503Z,64.78
2023-04-07T03:15:45.137Z,64.75
2023-04-07T03:18:12.848Z,64.31
2023-04-07T03:20:41.888Z,64.25
2023-04-07T03:23:09.966Z,64.44
2023-04-07T03:25:37.626Z,64.79
2023-04-07T03:28:06.781Z,64.41
2023-04-07T03:30:34.862Z,64.91
2023-04-07T03:35:30.208Z,64.86
2023-04-07T03:37:58.146Z,64.76
2023-04-07T03:40:25.807Z,64.36
2023-04-07T03:42:53.459Z,64.82
2023-04-07T03:45:22.868Z,64.81
2023-04-07T03:47:51.387Z,64.43
2023-04-07T03:50:19.550Z,64.84
2023-04-07T03:52:47.615Z,64.53
2023-04-07T03:55:15.539Z,64.39
2023-04-07T03:57:43.566Z,64.23
2023-04-07T04:00:13.105Z,64.83
2023-04-07T04:02:42.267Z,64.18
2023-04-07T04:05:10.653Z,64.22
2023-04-07T04:07:39.288Z,64.22
2023-04-07T04:10:08.396Z,64.24
2023-04-07T04:12:36.464Z,64.72
2023-04-07T04:15:04.601Z,64.26
2023-04-07T04:17:32.517Z,64.43
2023-04-07T04:20:01.716Z,64.50
2023-04-07T04:22:29.679Z,64.46
2023-04-07T04:24:57.367Z,64.75
2023-04-07T04:27:25.149Z,64.85
2023-04-07T04:29:54.062Z,64.44
2023-04-07T04:32:22.344Z,64.58
2023-04-07T04:34:50.080Z,64.31
2023-04-07T04:37:19.475Z,64.34
2023-04-07T04:39:47.138Z,64.58
2023-04-07T04:42:14.918Z,64.85
2023-04-07T04:44:42.832Z,64.58
2023-04-07T04:47:10.568Z,64.32
2023-04-07T04:49:38.238Z,64.72
2023-04-07T04:52:06.612Z,64.48
2023-04-07T04:54:35.649Z,64.79
2023-04-07T04:57:03.365Z,64.82
2023-04-07T04:59:31.444Z,64.74
2023-04-07T05:01:59.197Z,64.78
2023-04-07T05:04:28.416Z,64.56
2023-04-07T05:06:56.604Z,64.94
2023-04-07T05:09:24.268Z,64.86
2023-04-07T05:11:53.312Z,64.84
2023-04-07T05:14:21.332Z,64.79
2023-04-07T05:16:49.193Z,64.82
2023-04-07T05:19:16.859Z,64.40
2023-04-07T05:21:44.849Z,64.40
2023-04-07T05:24:12.585Z,64.57
2023-04-07T05:26:40.524Z,64.63
2023-04-07T05:29:09.878Z,64.38
2023-04-07T05:31:37.675Z,64.38
2023-04-07T05:34:05.733Z,64.19
2023-04-07T05:36:34.377Z,64.26
2023-04-07T05:39:02.171Z,64.51
2023-04-07T05:41:29.856Z,64.29
2023-04-07T05:43:57.800Z,64.40
2023-04-07T05:46:26.846Z,64.66
2023-04-07T05:48:54.773Z,64.23
2023-04-07T05:51:22.709Z,64.13
2023-04-07T05:53:50.630Z,64.48
2023-04-07T05:56:18.502Z,64.34
2023-04-07T05:58:46.613Z,64.63
2023-04-07T06:01:14.367Z,64.54
2023-04-07T06:03:43.593Z,64.15
2023-04-07T06:06:11.708Z,64.61
2023-04-07T06:08:39.397Z,64.26
2023-04-07T06:11:07.107Z,64.70
2023-04-07T06:13:35.085Z,64.57
2023-04-07T06:16:02.973Z,64.56
2023-04-07T06:18:30.864Z,64.73
2023-04-07T06:21:00.367Z,64.42
2023-04-07T06:23:28.029Z,64.48
2023-04-07T06:25:55.814Z,64.20
2023-04-07T06:28:23.870Z,64.80
2023-04-07T06:30:51.674Z,64.40
2023-04-07T06:33:19.640Z,64.20
2023-04-07T06:35:47.831Z,63.86
2023-04-07T06:38:16.903Z,64.19
2023-04-07T06:40:44.571Z,64.14
2023-04-07T06:43:12.653Z,64.13
2023-04-07T06:45:40.796Z,64.10
2023-04-07T06:48:08.783Z,64.22
2023-04-07T06:50:37.599Z,64.17
2023-04-07T06:53:05.543Z,64.24
2023-04-07T06:55:34.651Z,64.40
2023-04-07T06:58:02.662Z,63.99
2023-04-07T07:00:31.066Z,63.97
2023-04-07T07:02:59.209Z,64.10
2023-04-07T07:05:27.435Z,64.12
2023-04-07T07:07:55.253Z,63.94
2023-04-07T07:10:23.571Z,63.92
2023-04-07T07:12:54.241Z,64.28
2023-04-07T07:15:21.912Z,64.18
2023-04-07T07:17:49.788Z,64.01
2023-04-07T07:20:18.201Z,64.05
2023-04-07T07:22:46.197Z,64.03
2023-04-07T07:25:14.346Z,64.36
2023-04-07T07:27:42.655Z,64.32
2023-04-07T07:30:12.530Z,63.92
2023-04-07T07:32:40.557Z,63.80
2023-04-07T07:35:08.709Z,64.06
2023-04-07T07:37:36.555Z,63.55
2023-04-07T07:40:04.971Z,63.57
2023-04-07T07:42:33.696Z,63.46
2023-04-07T07:45:01.376Z,63.80
2023-04-07T07:47:30.853Z,63.71
2023-04-07T07:49:59.191Z,63.67
2023-04-07T07:52:27.089Z,63.15
2023-04-07T07:54:54.796Z,62.77
2023-04-07T07:57:22.981Z,62.73
2023-04-07T07:59:50.773Z,62.50
2023-04-07T08:02:18.570Z,62.84
2023-04-07T08:04:48.071Z,63.08
2023-04-07T08:07:16.315Z,62.95
2023-04-07T08:09:43.977Z,63.04
2023-04-07T08:12:12.229Z,62.94
2023-04-07T08:14:39.958Z,62.75
2023-04-07T08:17:07.868Z,62.19
2023-04-07T08:19:36.173Z,62.22
2023-04-07T08:22:05.269Z,62.36
2023-04-07T08:24:32.979Z,62.39
2023-04-07T08:27:02.111Z,62.70
2023-04-07T08:29:30.599Z,62.03
2023-04-07T08:31:59.052Z,61.60
2023-04-07T08:34:27.287Z,60.89
2023-04-07T08:36:54.962Z,60.60
2023-04-07T08:39:25.377Z,61.29
2023-04-07T08:41:53.827Z,60.74
2023-04-07T08:44:24.087Z,61.46
2023-04-07T08:46:53.344Z,61.30
2023-04-07T08:49:23.793Z,61.83
2023-04-07T08:51:54.524Z,61.45
2023-04-07T08:54:24.728Z,60.89
2023-04-07T08:56:53.115Z,61.22
2023-04-07T08:59:27.052Z,61.03
2023-04-07T09:01:56.408Z,61.53
2023-04-07T09:04:25.085Z,61.74
2023-04-07T09:06:55.673Z,61.41
2023-04-07T09:09:25.290Z,61.24
2023-04-07T09:11:53.345Z,62.00
2023-04-07T09:14:22.249Z,60.72
2023-04-07T09:16:49.942Z,60.54
2023-04-07T09:19:18.217Z,61.56
2023-04-07T09:21:50.623Z,61.19
2023-04-07T09:24:27.871Z,61.25
2023-04-07T09:27:16.766Z,61.62
2023-04-07T09:29:47.986Z,61.21
2023-04-07T09:32:37.252Z,61.04
2023-04-07T09:35:06.031Z,60.53
2023-04-07T09:37:33.736Z,60.08
2023-04-07T09:40:03.214Z,59.35
2023-04-07T09:42:32.993Z,59.05
2023-04-07T09:45:01.473Z,57.48
2023-04-07T09:47:30.047Z,58.22
2023-04-07T09:49:59.942Z,57.97
2023-04-07T09:52:51.866Z,57.98
2023-04-07T09:55:23.206Z,58.65
2023-04-07T09:57:51.837Z,57.99
2023-04-07T10:00:19.853Z,56.93
2023-04-07T10:02:48.588Z,56.65
2023-04-07T10:05:16.342Z,56.84
2023-04-07T10:07:44.228Z,55.74
2023-04-07T10:10:13.036Z,55.19
2023-04-07T10:12:43.146Z,55.65
2023-04-07T10:15:16.099Z,56.40
2023-04-07T10:17:48.344Z,56.29
2023-04-07T10:20:18.946Z,57.28
2023-04-07T10:22:49.237Z,55.98
2023-04-07T10:25:21.214Z,56.02
2023-04-07T10:27:53.867Z,55.86
2023-04-07T10:30:26.756Z,54.93
2023-04-07T10:32:55.518Z,54.25
2023-04-07T10:35:24.592Z,54.51
2023-04-07T10:38:14.275Z,56.49
2023-04-07T10:40:42.741Z,55.86
2023-04-07T10:43:12.353Z,53.52
2023-04-07T10:46:00.177Z,55.86
2023-04-07T10:48:33.170Z,54.63
2023-04-07T10:51:18.302Z,52.96
2023-04-07T10:54:20.958Z,54.98
2023-04-07T10:57:16.379Z,53.66
2023-04-07T11:00:18.509Z,54.48
2023-04-07T11:02:47.703Z,54.27
2023-04-07T11:05:23.524Z,54.83
2023-04-07T11:07:55.569Z,54.95
2023-04-07T11:10:23.384Z,55.54
2023-04-07T11:13:08.894Z,55.34
2023-04-07T11:15:40.695Z,55.85
2023-04-07T11:18:19.714Z,56.34
2023-04-07T11:20:50.110Z,56.10
2023-04-07T11:23:19.838Z,56.10
2023-04-07T11:25:49.175Z,56.14
2023-04-07T11:28:17.388Z,56.43
2023-04-07T11:30:52.357Z,56.00
2023-04-07T11:33:22.052Z,55.98
2023-04-07T11:35:55.982Z,56.45
2023-04-07T11:38:25.663Z,55.57
2023-04-07T11:40:53.171Z,56.85
2023-04-07T11:43:23.291Z,56.61
2023-04-07T11:46:12.291Z,55.94
2023-04-07T11:48:41.801Z,54.75
2023-04-07T11:51:17.447Z,55.71
2023-04-07T11:53:46.613Z,56.65
2023-04-07T11:56:18.610Z,56.07
2023-04-07T11:58:50.800Z,57.04
2023-04-07T12:01:20.563Z,57.09
2023-04-07T12:03:59.828Z,57.34
2023-04-07T12:06:30.375Z,56.16
2023-04-07T12:08:58.050Z,57.76
2023-04-07T12:11:27.068Z,57.95
2023-04-07T12:13:55.201Z,58.05
2023-04-07T12:16:24.470Z,60.32
2023-04-07T12:18:53.068Z,58.49
2023-04-07T12:21:21.184Z,58.88
2023-04-07T12:23:49.096Z,58.00
2023-04-07T12:26:17.558Z,57.19
2023-04-07T12:28:45.377Z,56.04
2023-04-07T12:31:13.132Z,55.13
2023-04-07T12:33:42.664Z,55.93
2023-04-07T12:36:10.384Z,55.54
2023-04-07T12:38:38.092Z,56.87
2023-04-07T12:41:06.430Z,56.53
2023-04-07T12:43:34.120Z,57.66
2023-04-07T12:46:01.857Z,57.59
2023-04-07T12:48:29.947Z,58.95
2023-04-07T12:50:59.004Z,58.25
2023-04-07T12:53:27.188Z,58.79
2023-04-07T12:55:54.907Z,59.21
2023-04-07T12:58:22.626Z,60.08
2023-04-07T13:00:50.501Z,59.92
2023-04-07T13:03:18.850Z,59.99
2023-04-07T13:05:46.666Z,59.73
2023-04-07T13:08:15.812Z,60.04
2023-04-07T13:10:43.895Z,59.98
2023-04-07T13:13:11.585Z,59.69
2023-04-07T13:15:39.263Z,60.05
2023-04-07T13:18:08.368Z,59.43
2023-04-07T13:20:36.118Z,59.49
2023-04-07T13:23:08.265Z,58.83
2023-04-07T13:25:39.460Z,58.88
2023-04-07T13:28:07.232Z,59.18
2023-04-07T13:30:35.403Z,59.01
2023-04-07T13:33:03.346Z,59.33
2023-04-07T13:35:35.426Z,59.23
2023-04-07T13:38:04.382Z,59.79
2023-04-07T13:40:32.298Z,60.15
2023-04-07T13:43:01.585Z,59.31
2023-04-07T13:45:29.566Z,59.69
2023-04-07T13:47:57.236Z,59.93
2023-04-07T13:50:25.294Z,59.50
2023-04-07T13:52:53.142Z,59.68
2023-04-07T13:55:21.402Z,59.42
2023-04-07T13:57:49.047Z,58.50
2023-04-07T14:00:19.061Z,58.95
2023-04-07T14:02:48.350Z,59.07
2023-04-07T14:05:16.421Z,58.91
2023-04-07T14:07:44.330Z,59.10
2023-04-07T14:10:12.113Z,58.15
2023-04-07T14:12:39.824Z,57.65
2023-04-07T14:15:08.947Z,57.71
2023-04-07T14:17:38.145Z,58.61
2023-04-07T14:20:07.103Z,58.56
2023-04-07T14:22:34.979Z,58.02
2023-04-07T14:25:02.630Z,58.06
2023-04-07T14:27:31.361Z,58.02
2023-04-07T14:29:59.841Z,57.69
2023-04-07T14:32:29.857Z,57.32
2023-04-07T14:34:59.786Z,56.99
2023-04-07T14:37:28.443Z,57.19
2023-04-07T14:40:02.661Z,56.43
2023-04-07T14:42:31.170Z,56.35
2023-04-07T14:45:00.170Z,56.42
2023-04-07T14:47:27.900Z,57.13
2023-04-07T14:49:56.057Z,56.09
2023-04-07T14:52:25.884Z,56.48
2023-04-07T14:54:53.592Z,56.47
2023-04-07T14:57:22.589Z,56.12
2023-04-07T14:59:50.322Z,56.38
2023-04-07T15:02:18.107Z,56.25
2023-04-07T15:04:46.599Z,56.81
2023-04-07T15:07:14.337Z,56.33
2023-04-07T15:09:43.368Z,56.53
2023-04-07T15:12:11.471Z,56.60
2023-04-07T15:14:39.792Z,56.77
2023-04-07T15:17:07.487Z,56.25
2023-04-07T15:19:35.734Z,56.61
2023-04-07T15:22:03.414Z,55.63
2023-04-07T15:24:31.157Z,55.74
2023-04-07T15:27:00.391Z,55.72
2023-04-07T15:29:28.099Z,55.52
2023-04-07T15:31:55.792Z,54.89
2023-04-07T15:34:23.762Z,55.36
2023-04-07T15:36:51.576Z,55.32
2023-04-07T15:39:19.224Z,55.38
2023-04-07T15:41:47.102Z,55.20
2023-04-07T15:44:19.299Z,54.64
2023-04-07T15:46:47.462Z,53.80
2023-04-07T15:49:23.651Z,53.77
2023-04-07T15:51:52.838Z,53.78
2023-04-07T15:54:20.506Z,53.33
2023-04-07T15:56:48.168Z,53.34
2023-04-07T15:59:17.422Z,52.69
2023-04-07T16:01:45.249Z,52.70
2023-04-07T16:04:13.096Z,53.36
2023-04-07T16:06:41.108Z,53.22
2023-04-07T16:09:09.392Z,52.92
2023-04-07T16:11:37.095Z,52.59
2023-04-07T16:14:05.806Z,53.31
2023-04-07T16:16:37.043Z,52.54
2023-04-07T16:19:05.018Z,52.53
2023-04-07T16:21:33.168Z,53.46
2023-04-07T16:24:00.843Z,52.40
2023-04-07T16:26:28.860Z,52.48
2023-04-07T16:28:56.533Z,51.09
2023-04-07T16:31:24.248Z,51.70
2023-04-07T16:33:54.082Z,52.11
2023-04-07T16:36:21.781Z,51.79
2023-04-07T16:38:50.992Z,51.70
2023-04-07T16:41:19.518Z,52.25
2023-04-07T16:43:47.541Z,51.52
2023-04-07T16:46:15.599Z,52.09
2023-04-07T16:48:43.828Z,51.70
2023-04-07T16:51:17.452Z,52.17
2023-04-07T16:53:45.876Z,52.58
2023-04-07T16:56:17.043Z,52.29
2023-04-07T16:58:45.081Z,52.79
2023-04-07T17:01:13.382Z,52.10
2023-04-07T17:03:41.667Z,52.42
2023-04-07T17:06:09.666Z,52.22
2023-04-07T17:08:40.262Z,52.34
2023-04-07T17:11:08.543Z,52.38
2023-04-07T17:13:37.546Z,52.02
2023-04-07T17:16:06.378Z,51.60
2023-04-07T17:18:34.589Z,52.25
2023-04-07T17:21:02.293Z,52.24
2023-04-07T17:23:31.340Z,52.74
2023-04-07T17:26:00.397Z,52.74
2023-04-07T17:28:29.875Z,51.93
2023-04-07T17:30:58.823Z,52.64
2023-04-07T17:33:27.776Z,52.75
2023-04-07T17:35:56.749Z,52.68
2023-04-07T17:38:25.086Z,53.29
2023-04-07T17:40:58.350Z,53.60
2023-04-07T17:43:27.746Z,52.83
2023-04-07T17:45:55.537Z,52.89
2023-04-07T17:48:23.354Z,52.62
2023-04-07T17:50:51.946Z,52.29
2023-04-07T17:53:20.616Z,52.64
2023-04-07T17:55:48.285Z,52.58
2023-04-07T17:58:16.512Z,52.00
2023-04-07T18:00:45.778Z,52.45
2023-04-07T18:03:14.559Z,52.12
2023-04-07T18:05:45.182Z,52.51
2023-04-07T18:08:13.397Z,52.55
2023-04-07T18:10:41.346Z,52.74
2023-04-07T18:13:09.706Z,52.67
2023-04-07T18:15:37.413Z,52.91
2023-04-07T18:18:06.725Z,53.05
2023-04-07T18:20:34.966Z,52.84
2023-04-07T18:23:02.975Z,53.28
2023-04-07T18:25:30.667Z,52.92
2023-04-07T18:27:59.142Z,53.10
2023-04-07T18:30:27.188Z,53.28
2023-04-07T18:32:54.999Z,53.04
2023-04-07T18:35:25.940Z,53.12
2023-04-07T18:37:53.643Z,53.14
2023-04-07T18:40:21.748Z,53.22
2023-04-07T18:42:49.725Z,53.39
2023-04-07T18:45:17.617Z,53.34
2023-04-07T18:47:45.313Z,53.10
2023-04-07T18:50:13.586Z,53.07
2023-04-07T18:52:42.625Z,52.76
2023-04-07T18:55:11.241Z,53.10
2023-04-07T18:57:39.800Z,52.75
2023-04-07T19:00:09.784Z,52.87
2023-04-07T19:02:38.718Z,52.69
2023-04-07T19:05:07.379Z,52.84
2023-04-07T19:07:35.049Z,52.51
2023-04-07T19:10:04.130Z,52.36
2023-04-07T19:12:32.296Z,52.75
2023-04-07T19:14:59.970Z,52.44
2023-04-07T19:17:28.182Z,52.12
2023-04-07T19:19:56.745Z,52.40
2023-04-07T19:22:24.433Z,52.13
2023-04-07T19:24:52.256Z,52.09
2023-04-07T19:27:23.301Z,52.38
2023-04-07T19:29:51.356Z,52.44
2023-04-07T19:32:19.075Z,51.90
2023-04-07T19:34:47.144Z,51.95
2023-04-07T19:37:14.796Z,52.17
2023-04-07T19:39:46.911Z,52.40
2023-04-07T19:42:21.751Z,51.99
2023-04-07T19:44:49.422Z,52.29
2023-04-07T19:47:17.084Z,52.91
2023-04-07T19:49:46.551Z,52.95
2023-04-07T19:52:14.291Z,52.79
2023-04-07T19:54:42.200Z,53.29
2023-04-07T19:57:10.377Z,53.57
2023-04-07T19:59:39.413Z,53.63
2023-04-07T20:02:07.186Z,53.56
2023-04-07T20:04:36.034Z,53.48
2023-04-07T20:07:03.732Z,54.19
2023-04-07T20:09:31.703Z,53.73
2023-04-07T20:12:00.009Z,54.03
2023-04-07T20:14:27.772Z,54.37
2023-04-07T20:16:57.105Z,54.48
2023-04-07T20:19:25.232Z,54.74
2023-04-07T20:21:52.880Z,55.02
2023-04-07T20:24:20.516Z,54.45
2023-04-07T20:26:48.347Z,54.94
2023-04-07T20:29:15.992Z,54.56
2023-04-07T20:31:44.089Z,54.66
2023-04-07T20:34:13.427Z,54.84
2023-04-07T20:36:41.228Z,54.56
2023-04-07T20:39:08.932Z,55.05
2023-04-07T20:41:36.810Z,55.29
2023-04-07T20:44:04.549Z,55.14
2023-04-07T20:46:33.697Z,55.10
2023-04-07T20:49:01.722Z,55.23
2023-04-07T20:51:30.740Z,55.00
2023-04-07T20:53:58.413Z,55.06
2023-04-07T20:56:26.260Z,55.03
2023-04-07T20:58:53.939Z,55.05
2023-04-07T21:01:21.804Z,54.60
2023-04-07T21:03:49.762Z,54.80
2023-04-07T21:06:17.475Z,54.53
2023-04-07T21:08:46.613Z,54.50
2023-04-07T21:11:14.579Z,54.63
2023-04-07T21:13:42.228Z,54.82
2023-04-07T21:16:09.937Z,54.97
2023-04-07T21:18:37.862Z,55.08
2023-04-07T21:21:08.048Z,54.71
2023-04-07T21:23:35.791Z,54.79
2023-04-07T21:26:05.445Z,54.92
2023-04-07T21:28:32.970Z,55.10
2023-04-07T21:31:01.303Z,54.98
2023-04-07T21:33:29.674Z,55.39
2023-04-07T21:35:57.348Z,55.41
2023-04-07T21:38:25.032Z,55.63
2023-04-07T21:40:53.238Z,55.24
2023-04-07T21:43:22.532Z,55.26
2023-04-07T21:45:50.327Z,55.78
2023-04-07T21:48:21.365Z,55.49
2023-04-07T21:50:49.033Z,55.45
2023-04-07T21:53:16.696Z,55.67
2023-04-07T21:55:44.830Z,56.07
2023-04-07T21:58:12.556Z,55.47
2023-04-07T22:00:41.784Z,55.96
2023-04-07T22:03:10.400Z,56.31
2023-04-07T22:05:39.174Z,55.79
2023-04-07T22:08:06.909Z,56.13
2023-04-07T22:10:35.149Z,55.95
2023-04-07T22:13:02.799Z,56.58
2023-04-07T22:15:30.615Z,56.16
2023-04-07T22:18:00.544Z,56.09
2023-04-07T22:20:28.244Z,56.32
2023-04-07T22:22:57.437Z,56.23
2023-04-07T22:25:26.313Z,56.57
2023-04-07T22:27:54.186Z,56.89
2023-04-07T22:30:24.288Z,56.69
2023-04-07T22:32:52.957Z,57.02
2023-04-07T22:35:22.110Z,57.01
2023-04-07T22:37:49.874Z,56.92
2023-04-07T22:40:18.094Z,57.15
2023-04-07T22:42:45.764Z,57.00
2023-04-07T22:45:13.504Z,57.36
2023-04-07T22:47:42.175Z,57.23
2023-04-07T22:50:10.698Z,57.21
2023-04-07T22:52:39.723Z,57.33
2023-04-07T22:55:09.196Z,57.29
2023-04-07T22:57:36.886Z,57.74
2023-04-07T23:00:04.913Z,57.63
2023-04-07T23:02:33.494Z,57.44
2023-04-07T23:05:01.417Z,57.38
2023-04-07T23:07:29.096Z,57.56
2023-04-07T23:09:59.146Z,57.73
2023-04-07T23:12:26.865Z,57.38
2023-04-07T23:14:54.570Z,57.58
2023-04-07T23:17:22.973Z,57.66
2023-04-07T23:19:50.655Z,57.76
2023-04-07T23:22:18.350Z,57.77
2023-04-07T23:24:46.783Z,57.66
2023-04-07T23:27:16.061Z,57.99
2023-04-07T23:29:43.804Z,57.96
2023-04-07T23:32:12.294Z,57.91
2023-04-07T23:34:39.979Z,57.94
2023-04-07T23:37:07.794Z,58.12
2023-04-07T23:39:36.123Z,58.32
2023-04-07T23:42:03.834Z,58.06
2023-04-07T23:44:32.870Z,58.42
2023-04-07T23:47:00.947Z,58.13
2023-04-07T23:49:29.244Z,58.44
2023-04-07T23:51:56.911Z,58.05
2023-04-07T23:54:25.231Z,58.45
2023-04-07T23:56:52.916Z,58.45
2023-04-07T23:59:20.787Z,58.67
